createdAt,value
2022-07-27T00:01:50.606Z,101210.00
2022-07-27T00:04:19.378Z,101205.00
2022-07-27T00:06:47.805Z,101207.00
2022-07-27T00:09:15.278Z,101208.00
2022-07-27T00:11:42.448Z,101206.00
2022-07-27T00:14:09.322Z,101207.00
2022-07-27T00:16:36.423Z,101200.00
2022-07-27T00:19:03.754Z,101210.00
2022-07-27T00:21:30.877Z,101201.00
2022-07-27T00:23:57.730Z,101211.00
2022-07-27T00:26:24.635Z,101200.00
2022-07-27T00:28:51.613Z,101193.00
2022-07-27T00:31:18.533Z,101203.00
2022-07-27T00:33:45.466Z,101197.00
2022-07-27T00:36:12.367Z,101202.00
2022-07-27T00:38:39.254Z,101208.00
2022-07-27T00:41:06.234Z,101204.00
2022-07-27T00:43:34.012Z,101206.00
2022-07-27T00:46:04.784Z,101197.00
2022-07-27T00:48:32.072Z,101194.00
2022-07-27T00:50:59.177Z,101179.00
2022-07-27T00:53:26.341Z,101187.00
2022-07-27T00:55:53.263Z,101179.00
2022-07-27T00:58:20.075Z,101181.00
2022-07-27T01:00:46.948Z,101173.00
2022-07-27T01:03:16.330Z,101170.00
2022-07-27T01:05:43.977Z,101171.00
2022-07-27T01:08:15.012Z,101171.00
2022-07-27T01:11:21.066Z,101177.00
2022-07-27T01:21:06.369Z,101165.00
2022-07-27T01:25:01.004Z,101165.00
2022-07-27T01:27:29.892Z,101172.00
2022-07-27T01:30:48.621Z,101174.00
2022-07-27T01:33:36.996Z,101178.00
2022-07-27T01:36:29.410Z,101183.00
2022-07-27T01:49:41.268Z,101167.00
2022-07-27T01:53:26.891Z,101168.00
2022-07-27T01:56:37.457Z,101166.00
2022-07-27T01:59:05.221Z,101164.00
2022-07-27T02:05:03.494Z,101171.00
2022-07-27T02:07:38.417Z,101180.00
2022-07-27T02:10:25.683Z,101176.00
2022-07-27T02:13:15.297Z,101175.00
2022-07-27T02:16:43.763Z,101175.00
2022-07-27T02:28:53.537Z,101180.00
2022-07-27T02:34:13.049Z,101169.00
2022-07-27T02:36:56.164Z,101167.00
2022-07-27T02:42:54.392Z,101157.00
2022-07-27T02:45:51.878Z,101162.00
2022-07-27T02:49:08.359Z,101158.00
2022-07-27T02:51:31.509Z,101143.00
2022-07-27T02:57:24.339Z,101150.00
2022-07-27T02:59:57.251Z,101144.00
2022-07-27T03:02:30.030Z,101153.00
2022-07-27T03:05:01.036Z,101155.00
2022-07-27T03:08:51.162Z,101146.00
2022-07-27T03:11:06.745Z,101142.00
2022-07-27T03:14:19.675Z,101138.00
2022-07-27T03:16:57.234Z,101144.00
2022-07-27T03:25:12.223Z,101163.00
2022-07-27T03:28:21.108Z,101166.00
2022-07-27T03:31:33.198Z,101166.00
2022-07-27T03:34:21.722Z,101162.00
2022-07-27T03:37:14.093Z,101175.00
2022-07-27T03:40:12.941Z,101174.00
2022-07-27T03:52:39.739Z,101183.00
2022-07-27T03:55:49.338Z,101183.00
2022-07-27T04:01:30.579Z,101166.00
2022-07-27T04:04:18.287Z,101184.00
2022-07-27T04:07:17.369Z,101176.00
2022-07-27T04:09:57.142Z,101194.00
2022-07-27T04:12:55.397Z,101194.00
2022-07-27T04:16:02.306Z,101191.00
2022-07-27T04:18:36.889Z,101186.00
2022-07-27T04:24:34.493Z,101205.00
2022-07-27T04:27:45.027Z,101205.00
2022-07-27T04:31:06.456Z,101192.00
2022-07-27T04:37:35.173Z,101205.00
2022-07-27T04:40:37.334Z,101200.00
2022-07-27T04:43:24.402Z,101211.00
2022-07-27T04:46:16.576Z,101198.00
2022-07-27T04:49:20.409Z,101204.00
2022-07-27T04:57:31.759Z,101197.00
2022-07-27T05:00:34.717Z,101206.00
2022-07-27T05:10:44.884Z,101196.00
2022-07-27T05:14:10.601Z,101197.00
2022-07-27T05:17:22.406Z,101201.00
2022-07-27T05:20:20.676Z,101201.00
2022-07-27T05:23:19.430Z,101205.00
2022-07-27T05:36:03.680Z,101235.00
2022-07-27T05:44:21.109Z,101257.00
2022-07-27T05:50:30.190Z,101267.00
2022-07-27T05:56:34.085Z,101277.00
2022-07-27T05:59:37.567Z,101282.00
2022-07-27T06:02:34.049Z,101292.00
2022-07-27T06:05:27.349Z,101284.00
2022-07-27T06:08:18.761Z,101299.00
2022-07-27T06:11:11.611Z,101305.00
2022-07-27T06:13:56.724Z,101300.00
2022-07-27T06:16:31.296Z,101306.00
2022-07-27T06:27:06.291Z,101296.00
2022-07-27T06:30:36.448Z,101313.00
2022-07-27T06:36:08.503Z,101325.00
2022-07-27T06:38:44.322Z,101329.00
2022-07-27T06:41:11.428Z,101319.00
2022-07-27T06:44:15.865Z,101310.00
2022-07-27T06:47:07.338Z,101322.00
2022-07-27T06:50:09.741Z,101304.00
2022-07-27T07:01:43.363Z,101331.00
2022-07-27T07:04:15.275Z,101334.00
2022-07-27T07:12:07.439Z,101326.00
2022-07-27T07:14:38.355Z,101360.00
2022-07-27T07:17:05.307Z,101348.00
2022-07-27T07:19:32.202Z,101337.00
2022-07-27T07:21:59.034Z,101344.00
2022-07-27T07:24:25.937Z,101367.00
2022-07-27T07:26:52.842Z,101360.00
2022-07-27T07:29:19.745Z,101370.00
2022-07-27T07:31:46.712Z,101377.00
2022-07-27T07:34:13.559Z,101370.00
2022-07-27T07:36:41.009Z,101371.00
2022-07-27T07:39:07.832Z,101398.00
2022-07-27T07:41:36.472Z,101395.00
2022-07-27T07:44:04.041Z,101392.00
2022-07-27T07:46:31.848Z,101387.00
2022-07-27T07:48:58.827Z,101393.00
2022-07-27T07:51:30.835Z,101381.00
2022-07-27T07:53:58.123Z,101383.00
2022-07-27T07:56:25.282Z,101363.00
2022-07-27T07:58:52.107Z,101370.00
2022-07-27T08:01:19.160Z,101384.00
2022-07-27T08:03:51.090Z,101397.00
2022-07-27T08:06:21.277Z,101402.00
2022-07-27T08:09:13.398Z,101401.00
2022-07-27T08:11:51.252Z,101382.00
2022-07-27T08:14:18.129Z,101409.00
2022-07-27T08:16:54.152Z,101418.00
2022-07-27T08:19:21.001Z,101414.00
2022-07-27T08:21:54.161Z,101425.00
2022-07-27T08:24:21.055Z,101423.00
2022-07-27T08:26:57.383Z,101418.00
2022-07-27T08:29:24.332Z,101403.00
2022-07-27T08:32:06.877Z,101397.00
2022-07-27T08:34:34.027Z,101410.00
2022-07-27T08:37:00.782Z,101418.00
2022-07-27T08:42:16.559Z,101421.00
2022-07-27T08:44:44.365Z,101422.00
2022-07-27T08:47:20.166Z,101407.00
2022-07-27T08:49:49.743Z,101426.00
2022-07-27T08:52:17.054Z,101423.00
2022-07-27T08:54:44.317Z,101431.00
2022-07-27T08:57:11.406Z,101425.00
2022-07-27T08:59:40.534Z,101425.00
2022-07-27T09:02:10.890Z,101414.00
2022-07-27T09:04:46.045Z,101409.00
2022-07-27T09:07:41.219Z,101433.00
2022-07-27T09:10:12.472Z,101434.00
2022-07-27T09:12:39.568Z,101433.00
2022-07-27T09:15:13.319Z,101420.00
2022-07-27T09:17:49.399Z,101434.00
2022-07-27T09:20:19.810Z,101425.00
2022-07-27T09:22:52.718Z,101434.00
2022-07-27T09:26:01.535Z,101423.00
2022-07-27T09:28:29.437Z,101432.00
2022-07-27T09:31:04.468Z,101428.00
2022-07-27T09:33:41.290Z,101426.00
2022-07-27T09:36:08.248Z,101416.00
2022-07-27T09:38:35.191Z,101408.00
2022-07-27T09:41:03.796Z,101404.00
2022-07-27T09:46:40.287Z,101416.00
2022-07-27T09:49:25.473Z,101420.00
2022-07-27T09:52:01.305Z,101426.00
2022-07-27T09:54:43.581Z,101429.00
2022-07-27T09:57:11.237Z,101439.00
2022-07-27T09:59:41.294Z,101434.00
2022-07-27T10:02:09.383Z,101440.00
2022-07-27T10:04:56.004Z,101441.00
2022-07-27T10:07:22.932Z,101442.00
2022-07-27T10:09:54.589Z,101456.00
2022-07-27T10:12:24.535Z,101441.00
2022-07-27T10:14:51.367Z,101452.00
2022-07-27T10:17:18.630Z,101428.00
2022-07-27T10:19:47.084Z,101447.00
2022-07-27T10:22:37.081Z,101462.00
2022-07-27T10:25:04.621Z,101444.00
2022-07-27T10:27:31.595Z,101469.00
2022-07-27T10:30:00.989Z,101455.00
2022-07-27T10:35:32.894Z,101436.00
2022-07-27T10:38:16.711Z,101445.00
2022-07-27T10:40:44.265Z,101464.00
2022-07-27T10:43:22.957Z,101465.00
2022-07-27T10:46:02.141Z,101471.00
2022-07-27T10:48:48.416Z,101462.00
2022-07-27T10:51:33.826Z,101475.00
2022-07-27T10:57:00.869Z,101470.00
2022-07-27T11:02:42.631Z,101485.00
2022-07-27T11:05:42.493Z,101485.00
2022-07-27T11:10:51.412Z,101478.00
2022-07-27T11:13:20.115Z,101480.00
2022-07-27T11:16:23.018Z,101471.00
2022-07-27T11:19:04.474Z,101463.00
2022-07-27T11:21:36.161Z,101452.00
2022-07-27T11:24:14.569Z,101443.00
2022-07-27T11:26:50.016Z,101444.00
2022-07-27T11:29:40.168Z,101435.00
2022-07-27T11:34:47.155Z,101449.00
2022-07-27T11:37:23.716Z,101430.00
2022-07-27T11:40:42.269Z,101435.00
2022-07-27T11:42:55.607Z,101419.00
2022-07-27T11:45:42.264Z,101414.00
2022-07-27T11:48:12.106Z,101426.00
2022-07-27T11:50:57.891Z,101452.00
2022-07-27T11:53:24.736Z,101456.00
2022-07-27T11:55:51.503Z,101446.00
2022-07-27T11:58:24.191Z,101472.00
2022-07-27T12:00:51.034Z,101462.00
2022-07-27T12:06:01.823Z,101471.00
2022-07-27T12:08:32.274Z,101463.00
2022-07-27T12:11:02.661Z,101483.00
2022-07-27T12:13:43.696Z,101477.00
2022-07-27T12:16:11.310Z,101501.00
2022-07-27T12:18:43.672Z,101520.00
2022-07-27T12:21:22.701Z,101484.00
2022-07-27T12:23:53.084Z,101492.00
2022-07-27T12:26:25.333Z,101473.00
2022-07-27T12:29:07.915Z,101508.00
2022-07-27T12:31:48.003Z,101511.00
2022-07-27T12:34:15.349Z,101506.00
2022-07-27T12:36:54.408Z,101502.00
2022-07-27T12:39:29.212Z,101505.00
2022-07-27T12:42:04.697Z,101511.00
2022-07-27T12:44:41.015Z,101518.00
2022-07-27T12:47:29.942Z,101512.00
2022-07-27T12:50:07.893Z,101494.00
2022-07-27T12:52:37.013Z,101494.00
2022-07-27T12:55:05.298Z,101514.00
2022-07-27T12:57:54.547Z,101503.00
2022-07-27T13:00:29.184Z,101488.00
2022-07-27T13:02:59.683Z,101521.00
2022-07-27T13:05:26.697Z,101509.00
2022-07-27T13:07:54.734Z,101520.00
2022-07-27T13:10:22.432Z,101510.00
2022-07-27T13:12:55.561Z,101518.00
2022-07-27T13:27:05.828Z,101487.00
2022-07-27T13:30:15.164Z,101508.00
2022-07-27T13:36:47.360Z,101513.00
2022-07-27T13:48:13.953Z,101530.00
2022-07-27T13:54:17.556Z,101521.00
2022-07-27T13:57:32.311Z,101529.00
2022-07-27T14:03:00.188Z,101516.00
2022-07-27T14:06:09.165Z,101514.00
2022-07-27T14:09:53.828Z,101510.00
2022-07-27T14:13:28.567Z,101524.00
2022-07-27T14:19:34.920Z,101508.00
2022-07-27T14:22:02.798Z,101527.00
2022-07-27T14:24:37.600Z,101517.00
2022-07-27T14:27:36.062Z,101517.00
2022-07-27T14:30:51.045Z,101535.00
2022-07-27T14:33:18.234Z,101534.00
2022-07-27T14:36:10.227Z,101512.00
2022-07-27T14:39:00.878Z,101521.00
2022-07-27T14:41:55.118Z,101506.00
2022-07-27T14:44:29.616Z,101494.00
2022-07-27T14:50:05.914Z,101473.00
2022-07-27T14:52:35.971Z,101490.00
2022-07-27T15:07:30.260Z,101494.00
2022-07-27T15:10:16.905Z,101488.00
2022-07-27T15:12:52.722Z,101473.00
2022-07-27T15:18:38.285Z,101480.00
2022-07-27T15:21:14.114Z,101482.00
2022-07-27T15:24:15.210Z,101469.00
2022-07-27T15:26:44.554Z,101464.00
2022-07-27T15:29:44.230Z,101471.00
2022-07-27T15:32:13.736Z,101472.00
2022-07-27T15:34:40.853Z,101468.00
2022-07-27T15:37:13.776Z,101474.00
2022-07-27T15:40:34.636Z,101486.00
2022-07-27T15:43:12.071Z,101483.00
2022-07-27T15:45:48.007Z,101490.00
2022-07-27T15:48:27.988Z,101500.00
2022-07-27T15:51:24.067Z,101496.00
2022-07-27T15:56:37.142Z,101478.00
2022-07-27T15:59:42.505Z,101474.00
2022-07-27T16:02:26.166Z,101463.00
2022-07-27T16:04:56.752Z,101477.00
2022-07-27T16:07:40.761Z,101467.00
2022-07-27T16:10:29.583Z,101473.00
2022-07-27T16:16:15.638Z,101479.00
2022-07-27T16:19:00.205Z,101479.00
2022-07-27T16:21:56.147Z,101479.00
2022-07-27T16:24:38.312Z,101503.00
2022-07-27T16:30:38.269Z,101494.00
2022-07-27T16:41:54.101Z,101467.00
2022-07-27T16:44:34.721Z,101466.00
2022-07-27T16:47:09.633Z,101480.00
2022-07-27T16:49:37.212Z,101464.00
2022-07-27T17:03:13.042Z,101468.00
2022-07-27T17:52:25.295Z,101475.00
2022-07-27T17:59:20.484Z,101464.00
2022-07-27T18:03:18.057Z,101462.00
2022-07-27T18:05:26.756Z,101448.00
2022-07-27T18:10:58.723Z,101454.00
2022-07-27T18:13:37.922Z,101464.00
2022-07-27T18:16:20.351Z,101455.00
2022-07-27T18:18:56.963Z,101454.00
2022-07-27T18:35:03.051Z,101465.00
2022-07-27T18:41:19.404Z,101483.00
2022-07-27T18:43:57.521Z,101498.00
2022-07-27T18:46:27.727Z,101500.00
2022-07-27T18:48:55.991Z,101507.00
2022-07-27T18:51:31.348Z,101501.00
2022-07-27T18:54:08.611Z,101497.00
2022-07-27T19:00:24.081Z,101509.00
2022-07-27T19:02:57.967Z,101502.00
2022-07-27T19:05:53.556Z,101508.00
2022-07-27T19:08:47.530Z,101515.00
2022-07-27T19:11:26.525Z,101515.00
2022-07-27T19:14:03.383Z,101519.00
2022-07-27T19:20:02.330Z,101502.00
2022-07-27T19:23:25.983Z,101521.00
2022-07-27T19:25:52.941Z,101521.00
2022-07-27T19:35:25.543Z,101533.00
2022-07-27T19:48:18.109Z,101549.00
2022-07-27T19:50:51.170Z,101551.00
2022-07-27T19:51:25.579Z,101548.00
2022-07-27T19:56:37.249Z,101557.00
2022-07-27T19:59:29.623Z,101541.00
2022-07-27T20:02:24.554Z,101550.00
2022-07-27T20:05:02.867Z,101563.00
2022-07-27T20:07:29.876Z,101568.00
2022-07-27T20:09:56.816Z,101569.00
2022-07-27T20:12:23.814Z,101561.00
2022-07-27T20:14:50.688Z,101534.00
2022-07-27T20:17:17.601Z,101544.00
2022-07-27T20:19:45.247Z,101508.00
2022-07-27T20:22:12.312Z,101527.00
2022-07-27T20:24:39.138Z,101518.00
2022-07-27T20:27:06.161Z,101521.00
2022-07-27T20:29:33.217Z,101522.00
2022-07-27T20:32:00.307Z,101532.00
2022-07-27T20:34:27.143Z,101521.00
2022-07-27T20:36:55.391Z,101545.00
2022-07-27T20:39:25.037Z,101549.00
2022-07-27T20:41:52.421Z,101541.00
2022-07-27T20:44:20.913Z,101558.00
2022-07-27T20:46:48.095Z,101556.00
2022-07-27T20:49:16.665Z,101544.00
2022-07-27T20:51:44.080Z,101546.00
2022-07-27T20:54:10.926Z,101546.00
2022-07-27T20:56:37.805Z,101546.00
2022-07-27T20:59:16.812Z,101534.00
2022-07-27T21:01:44.506Z,101545.00
2022-07-27T21:04:11.665Z,101540.00
2022-07-27T21:06:38.618Z,101552.00
2022-07-27T21:09:11.141Z,101551.00
2022-07-27T21:11:38.256Z,101572.00
2022-07-27T21:14:05.567Z,101563.00
2022-07-27T21:16:32.862Z,101576.00
2022-07-27T21:18:59.734Z,101554.00
2022-07-27T21:21:27.792Z,101560.00
2022-07-27T21:24:13.641Z,101586.00
2022-07-27T21:30:28.768Z,101598.00
2022-07-27T21:32:55.673Z,101602.00
2022-07-27T21:35:22.745Z,101599.00
2022-07-27T21:37:52.574Z,101603.00
2022-07-27T21:40:32.036Z,101597.00
2022-07-27T21:42:58.984Z,101604.00
2022-07-27T21:45:26.051Z,101587.00
2022-07-27T21:47:53.242Z,101581.00
2022-07-27T21:50:20.384Z,101584.00
2022-07-27T21:52:47.317Z,101576.00
2022-07-27T21:55:14.262Z,101580.00
2022-07-27T21:57:49.629Z,101566.00
2022-07-27T22:00:21.272Z,101571.00
2022-07-27T22:02:54.383Z,101583.00
2022-07-27T22:05:22.898Z,101581.00
2022-07-27T22:07:51.176Z,101585.00
2022-07-27T22:10:19.230Z,101580.00
2022-07-27T22:12:46.315Z,101573.00
2022-07-27T22:16:05.280Z,101577.00
2022-07-27T22:19:20.032Z,101565.00
2022-07-27T22:21:46.925Z,101591.00
2022-07-27T22:24:27.751Z,101582.00
2022-07-27T22:29:35.891Z,101579.00
2022-07-27T22:32:02.848Z,101604.00
2022-07-27T22:34:29.810Z,101569.00
2022-07-27T22:36:56.661Z,101592.00
2022-07-27T22:39:23.461Z,101578.00
2022-07-27T22:41:50.319Z,101581.00
2022-07-27T22:44:54.745Z,101578.00
2022-07-27T22:47:21.666Z,101580.00
2022-07-27T22:49:48.498Z,101582.00
2022-07-27T22:52:15.343Z,101572.00
2022-07-27T22:54:42.200Z,101567.00
2022-07-27T22:57:09.154Z,101569.00
2022-07-27T22:59:37.451Z,101575.00
2022-07-27T23:05:00.942Z,101578.00
2022-07-27T23:10:52.275Z,101566.00
2022-07-27T23:13:39.516Z,101575.00
2022-07-27T23:16:06.532Z,101566.00
2022-07-27T23:18:33.430Z,101565.00
2022-07-27T23:21:00.246Z,101571.00
2022-07-27T23:23:27.794Z,101565.00
2022-07-27T23:25:54.737Z,101573.00
2022-07-27T23:28:22.125Z,101560.00
2022-07-27T23:30:51.383Z,101554.00
2022-07-27T23:33:18.376Z,101550.00
2022-07-27T23:35:45.228Z,101551.00
2022-07-27T23:38:12.226Z,101549.00
2022-07-27T23:40:39.121Z,101554.00
2022-07-27T23:43:05.987Z,101553.00
2022-07-27T23:45:34.626Z,101552.00
2022-07-27T23:48:01.837Z,101552.00
2022-07-27T23:50:28.752Z,101546.00
2022-07-27T23:52:55.579Z,101543.00
2022-07-27T23:55:22.474Z,101547.00
2022-07-27T23:57:49.309Z,101554.00
